East Liberty, Ohio
Current Conditions -  °F | °C
As of 4:10 PM on Tuesday 27 Jan 2015 (Local Time) from KEDJ Reporting Station
Clear Clear  
Wind Chill:   Ceiling: Unl
Heat Index: 19°   Visibility: 10mi
Dew Point: 10°   Wind: 13mph
Humidity: 68%   Direction: 340°NNW
Pressure: 30.12"   Gusts: NA
Location:  40.33°N, 83.58°W
Report Text: KEDJ 272110Z AUTO 34011KT 10SM CLR M07/M12 A3012 RMK AO1
Loading
Personal Weather Stations






























Interactive Weather Map New forecast layout! Learn more

10-Day Weather Forecast

Advertisements
Track Severe Weather on mobile